Time;durP1;ratioP1;P1;durP2;ratioP2;P2;SDS_P1;SDS_P2;PMS_P1;PMS_P2;Temp;Humidity;BMP_temperature;BMP_pressure;BME280_temperature;BME280_humidity;BME280_pressure;Samples;Min_cycle;Max_cycle;Signal;HPM_P1;HPM_P2
2021/07/05 00:03:10;;;;;;;11.40;6.57;;;13.20;99.90;;;;;;4433236;27;655592;-70
2021/07/05 00:05:59;;;;;;;13.50;6.10;;;13.20;99.90;;;;;;4442438;27;656255;-71
2021/07/05 00:08:47;;;;;;;10.80;6.17;;;13.10;99.90;;;;;;4482213;27;656766;-71
2021/07/05 00:11:34;;;;;;;15.27;7.38;;;13.10;99.90;;;;;;4465316;27;656472;-70
2021/07/05 00:14:22;;;;;;;10.73;6.47;;;13.10;99.90;;;;;;4470600;27;657576;-71
2021/07/05 00:17:09;;;;;;;15.20;6.43;;;13.00;99.90;;;;;;4460436;27;656493;-70
2021/07/05 00:19:59;;;;;;;14.53;6.80;;;13.00;99.90;;;;;;4478928;27;657338;-71
2021/07/05 00:22:47;;;;;;;14.03;6.87;;;12.90;99.90;;;;;;4465540;27;657858;-71
2021/07/05 00:25:34;;;;;;;13.47;6.53;;;13.00;99.90;;;;;;4475486;28;656880;-70
2021/07/05 00:28:22;;;;;;;12.10;6.97;;;12.90;99.90;;;;;;4488243;28;657028;-71
2021/07/05 00:31:09;;;;;;;13.73;6.97;;;12.90;99.90;;;;;;4457691;28;656934;-70
2021/07/05 00:33:57;;;;;;;8.83;6.30;;;12.90;99.90;;;;;;4482792;28;657837;-72
2021/07/05 00:36:46;;;;;;;13.90;7.33;;;12.90;99.90;;;;;;4461538;28;656029;-70
2021/07/05 00:39:33;;;;;;;11.10;7.17;;;12.90;99.90;;;;;;4479578;28;656231;-72
2021/07/05 00:42:21;;;;;;;12.97;7.30;;;12.90;99.90;;;;;;4464937;28;657038;-70
2021/07/05 00:45:10;;;;;;;11.30;7.20;;;12.90;99.90;;;;;;4484651;28;656056;-71
2021/07/05 00:47:57;;;;;;;9.80;6.90;;;12.90;99.90;;;;;;4455641;28;657498;-71
2021/07/05 00:50:45;;;;;;;13.10;6.90;;;12.80;99.90;;;;;;4466407;28;655505;-70
2021/07/05 00:53:34;;;;;;;12.90;7.40;;;12.80;99.90;;;;;;4484591;27;657961;-71
2021/07/05 00:56:21;;;;;;;12.87;7.67;;;12.70;99.90;;;;;;4468578;27;656679;-71
2021/07/05 00:59:09;;;;;;;12.13;7.03;;;12.70;99.90;;;;;;4485361;27;657804;-70
2021/07/05 01:01:57;;;;;;;10.47;7.07;;;12.70;99.90;;;;;;4487137;27;657728;-71
2021/07/05 01:04:44;;;;;;;10.07;7.10;;;12.70;99.90;;;;;;4469449;27;657116;-70
2021/07/05 01:07:32;;;;;;;12.10;6.83;;;12.70;99.90;;;;;;4487943;27;657442;-70
2021/07/05 01:10:22;;;;;;;9.30;6.80;;;12.70;99.90;;;;;;4463338;27;656968;-70
2021/07/05 01:13:10;;;;;;;13.70;6.90;;;12.70;99.90;;;;;;4473382;27;655536;-70
2021/07/05 01:15:58;;;;;;;12.40;7.20;;;12.70;99.90;;;;;;4487766;27;656606;-71
2021/07/05 01:18:46;;;;;;;11.43;7.80;;;12.70;99.90;;;;;;4468273;27;656617;-71
2021/07/05 01:21:35;;;;;;;13.23;7.57;;;12.70;99.90;;;;;;4487501;27;656283;-71
2021/07/05 01:24:22;;;;;;;11.80;8.07;;;12.70;99.90;;;;;;4455403;27;657752;-71
2021/07/05 01:27:10;;;;;;;13.33;7.63;;;12.60;99.90;;;;;;4460885;27;657153;-70
2021/07/05 01:29:57;;;;;;;10.23;7.47;;;12.60;99.90;;;;;;4487090;27;656970;-71
2021/07/05 01:32:45;;;;;;;12.07;7.40;;;12.60;99.90;;;;;;4467977;27;657601;-71
2021/07/05 01:35:33;;;;;;;10.93;6.93;;;12.60;99.90;;;;;;4486615;27;656240;-71
2021/07/05 01:38:22;;;;;;;11.40;7.53;;;12.50;99.90;;;;;;4460322;27;657064;-71
2021/07/05 01:41:10;;;;;;;10.20;7.07;;;12.50;99.90;;;;;;4450545;27;656993;-70
2021/07/05 01:43:57;;;;;;;11.57;7.17;;;12.50;99.90;;;;;;4490371;27;657524;-71
2021/07/05 01:46:45;;;;;;;12.40;6.90;;;12.50;99.90;;;;;;4467575;27;656586;-70
2021/07/05 01:49:32;;;;;;;9.90;7.60;;;12.50;99.90;;;;;;4481402;27;657803;-70
2021/07/05 01:52:20;;;;;;;10.73;7.60;;;12.50;99.90;;;;;;4460744;27;655688;-69
2021/07/05 01:55:10;;;;;;;10.63;6.90;;;12.50;99.90;;;;;;4480137;27;657145;-70
2021/07/05 01:57:57;;;;;;;11.20;7.60;;;12.50;99.90;;;;;;4463426;27;656936;-71
2021/07/05 02:00:46;;;;;;;15.47;7.57;;;12.50;99.90;;;;;;4467225;27;656818;-70
2021/07/05 02:03:34;;;;;;;11.17;7.23;;;12.50;99.90;;;;;;4478188;27;656581;-71
2021/07/05 02:06:21;;;;;;;9.97;7.17;;;12.50;99.90;;;;;;4467049;27;657075;-71
2021/07/05 02:09:10;;;;;;;12.53;7.63;;;12.50;99.90;;;;;;4485790;27;656090;-70
2021/07/05 02:11:59;;;;;;;10.73;7.30;;;12.50;99.90;;;;;;4489032;27;657261;-71
2021/07/05 02:14:46;;;;;;;15.10;7.67;;;12.50;99.90;;;;;;4463111;27;658111;-72
2021/07/05 02:17:34;;;;;;;11.20;7.70;;;12.50;99.90;;;;;;4485283;27;656686;-71
2021/07/05 02:20:23;;;;;;;10.20;7.37;;;12.50;99.90;;;;;;4467202;27;656868;-71
2021/07/05 02:23:12;;;;;;;13.90;7.23;;;12.40;99.90;;;;;;4466926;27;656451;-70
2021/07/05 02:25:59;;;;;;;13.27;7.25;;;12.40;99.90;;;;;;4460991;27;657631;-70
2021/07/05 02:28:49;;;;;;;10.83;7.63;;;12.40;99.90;;;;;;4483795;27;657606;-71
2021/07/05 02:31:36;;;;;;;11.60;7.33;;;12.40;99.90;;;;;;4461714;27;658487;-71
2021/07/05 02:34:24;;;;;;;13.93;7.70;;;12.40;99.90;;;;;;4485805;27;657815;-71
2021/07/05 02:37:11;;;;;;;11.20;7.73;;;12.40;99.90;;;;;;4455132;27;657131;-71
2021/07/05 02:39:59;;;;;;;9.90;7.67;;;12.40;99.90;;;;;;4485768;27;656894;-72
2021/07/05 02:42:46;;;;;;;13.30;7.57;;;12.40;99.90;;;;;;4448947;27;656540;-70
2021/07/05 02:45:36;;;;;;;11.63;7.13;;;12.40;99.90;;;;;;4485149;27;656872;-71
2021/07/05 02:48:24;;;;;;;12.90;7.50;;;12.40;99.90;;;;;;4466497;27;656463;-70
2021/07/05 02:51:11;;;;;;;10.23;6.93;;;12.40;99.90;;;;;;4461690;27;657329;-70
2021/07/05 02:53:59;;;;;;;10.87;6.70;;;12.40;99.90;;;;;;4478331;27;656299;-70
2021/07/05 02:56:47;;;;;;;10.23;7.10;;;12.40;99.90;;;;;;4486122;27;657658;-70
2021/07/05 02:59:34;;;;;;;12.07;7.83;;;12.50;99.90;;;;;;4469080;27;656463;-69
2021/07/05 03:02:23;;;;;;;10.73;7.00;;;12.50;99.90;;;;;;4482970;27;657532;-70
2021/07/05 03:05:11;;;;;;;11.27;7.50;;;12.50;99.90;;;;;;4464513;27;656361;-70
2021/07/05 03:07:59;;;;;;;12.07;7.30;;;12.50;99.90;;;;;;4476168;27;656737;-70
2021/07/05 03:10:47;;;;;;;11.00;7.03;;;12.40;99.90;;;;;;4472882;27;657190;-70
2021/07/05 03:13:34;;;;;;;9.93;6.80;;;12.50;99.90;;;;;;4466299;27;656385;-71
2021/07/05 03:16:22;;;;;;;10.50;7.23;;;12.60;99.90;;;;;;4486552;27;656283;-70
2021/07/05 03:19:11;;;;;;;9.75;6.65;;;12.60;99.90;;;;;;4457741;27;656583;-70
2021/07/05 03:21:58;;;;;;;9.97;6.57;;;12.60;99.90;;;;;;4481056;27;655667;-70
2021/07/05 03:24:46;;;;;;;12.37;7.43;;;12.60;99.90;;;;;;4467122;27;655509;-71
2021/07/05 03:27:34;;;;;;;11.17;7.27;;;12.70;99.90;;;;;;4485365;27;656542;-71
2021/07/05 03:30:22;;;;;;;16.47;7.40;;;12.80;99.90;;;;;;4456188;27;658586;-70
2021/07/05 03:33:10;;;;;;;8.73;7.03;;;12.80;99.90;;;;;;4468778;27;656313;-70
2021/07/05 03:35:58;;;;;;;15.90;7.87;;;12.90;99.90;;;;;;4488512;27;656487;-70
2021/07/05 03:38:46;;;;;;;10.03;7.23;;;12.90;99.90;;;;;;4456684;27;658220;-71
2021/07/05 03:41:33;;;;;;;16.13;7.65;;;13.00;99.90;;;;;;4484709;27;657305;-71
2021/07/05 03:44:21;;;;;;;13.73;7.90;;;13.10;99.90;;;;;;4456825;27;658369;-70
2021/07/05 03:47:09;;;;;;;14.90;7.93;;;13.20;99.90;;;;;;4481921;27;656072;-70
2021/07/05 03:49:56;;;;;;;15.23;8.67;;;13.30;99.90;;;;;;4461619;27;657343;-70
2021/07/05 03:52:45;;;;;;;18.87;8.77;;;13.40;99.90;;;;;;4478814;27;656473;-70
2021/07/05 03:55:34;;;;;;;15.13;8.60;;;13.50;99.90;;;;;;4460425;27;656434;-71
2021/07/05 03:58:21;;;;;;;13.37;7.57;;;13.70;99.90;;;;;;4461658;27;657403;-72
2021/07/05 04:01:09;;;;;;;15.10;8.03;;;13.80;99.90;;;;;;4477222;27;657271;-69
2021/07/05 04:03:57;;;;;;;17.97;7.77;;;13.90;99.90;;;;;;4479079;27;657799;-71
2021/07/05 04:06:44;;;;;;;11.80;7.70;;;13.90;99.90;;;;;;4458209;27;656876;-70
2021/07/05 04:09:33;;;;;;;13.03;8.07;;;14.10;99.90;;;;;;4479320;27;657433;-70
2021/07/05 04:12:21;;;;;;;16.70;8.50;;;14.20;99.90;;;;;;4465258;27;657786;-70
2021/07/05 04:15:09;;;;;;;13.83;8.80;;;14.30;99.90;;;;;;4484303;27;656973;-70
2021/07/05 04:17:57;;;;;;;11.83;8.33;;;14.40;99.90;;;;;;4456836;27;657986;-71
2021/07/05 04:20:44;;;;;;;16.50;8.70;;;14.60;99.90;;;;;;4474005;27;656538;-70
2021/07/05 04:23:32;;;;;;;12.70;8.17;;;14.80;99.90;;;;;;4478298;28;657548;-71
2021/07/05 04:26:21;;;;;;;18.23;9.00;;;14.90;99.90;;;;;;4463048;28;656516;-69
2021/07/05 04:29:08;;;;;;;17.77;8.80;;;15.10;99.90;;;;;;4481009;27;656648;-71
2021/07/05 04:31:56;;;;;;;16.27;8.80;;;15.20;99.90;;;;;;4461802;28;656720;-72
2021/07/05 04:34:44;;;;;;;13.20;8.63;;;15.40;99.90;;;;;;4484626;28;656235;-72
2021/07/05 04:37:31;;;;;;;16.47;9.17;;;15.50;99.90;;;;;;4455436;28;657960;-71
2021/07/05 04:40:20;;;;;;;12.07;8.80;;;15.70;99.90;;;;;;4479794;28;656631;-70
2021/07/05 04:43:09;;;;;;;13.83;10.23;;;15.80;99.90;;;;;;4465203;28;656758;-71
2021/07/05 04:46:02;;;;;;;13.37;9.80;;;16.00;99.90;;;;;;4456272;28;658086;-70
2021/07/05 04:48:50;;;;;;;21.83;10.87;;;16.10;99.90;;;;;;4438054;28;656954;-70
2021/07/05 04:51:37;;;;;;;19.93;11.10;;;16.30;99.90;;;;;;4478846;28;657926;-70
2021/07/05 04:54:25;;;;;;;16.43;10.33;;;16.50;99.90;;;;;;4455389;28;657542;-70
2021/07/05 04:57:12;;;;;;;15.30;11.17;;;16.80;99.90;;;;;;4482866;28;659277;-71
2021/07/05 05:00:01;;;;;;;16.27;10.53;;;16.90;99.90;;;;;;4456711;28;657643;-70
2021/07/05 05:02:49;;;;;;;16.43;11.07;;;17.10;99.90;;;;;;4477617;28;657682;-70
2021/07/05 05:05:40;;;;;;;16.07;10.57;;;17.20;99.90;;;;;;4479083;28;658311;-72
2021/07/05 05:08:27;;;;;;;21.77;11.30;;;17.40;99.90;;;;;;4460191;28;658642;-71
2021/07/05 05:11:15;;;;;;;17.03;10.87;;;17.50;99.90;;;;;;4462626;28;657492;-70
2021/07/05 05:14:03;;;;;;;17.50;11.13;;;17.70;99.90;;;;;;4475084;28;658458;-71
2021/07/05 05:16:52;;;;;;;17.93;11.30;;;17.80;99.90;;;;;;4461332;28;657542;-70
2021/07/05 05:19:40;;;;;;;22.33;11.30;;;17.90;99.90;;;;;;4472795;28;657938;-70
2021/07/05 05:22:27;;;;;;;18.63;12.17;;;18.00;99.90;;;;;;4480183;28;658417;-70
2021/07/05 05:25:15;;;;;;;18.00;11.40;;;18.10;99.90;;;;;;4454220;28;658166;-70
2021/07/05 05:28:02;;;;;;;21.73;12.60;;;18.10;99.90;;;;;;4479898;28;658084;-70
2021/07/05 05:30:50;;;;;;;16.70;11.67;;;18.10;99.90;;;;;;4463816;28;657958;-70
2021/07/05 05:33:39;;;;;;;21.60;12.37;;;18.20;99.90;;;;;;4482606;28;658364;-70
2021/07/05 05:36:27;;;;;;;17.20;11.87;;;18.30;99.90;;;;;;4455822;28;658153;-71
2021/07/05 05:39:15;;;;;;;17.20;11.95;;;18.40;99.90;;;;;;4466515;28;657580;-70
2021/07/05 05:42:02;;;;;;;18.00;10.93;;;18.60;99.90;;;;;;4487762;27;658965;-70
2021/07/05 05:44:50;;;;;;;15.07;10.40;;;18.70;99.90;;;;;;4459256;27;657639;-68
2021/07/05 05:47:37;;;;;;;19.23;10.67;;;18.90;99.90;;;;;;4477229;27;657818;-68
2021/07/05 05:50:26;;;;;;;14.80;10.60;;;19.10;99.90;;;;;;4467037;27;657990;-68
2021/07/05 05:53:14;;;;;;;21.00;10.27;;;19.30;99.90;;;;;;4482224;27;657567;-68
2021/07/05 05:56:02;;;;;;;14.77;9.40;;;19.40;99.90;;;;;;4485594;27;658372;-68
2021/07/05 05:58:49;;;;;;;13.37;9.50;;;19.50;99.90;;;;;;4467411;27;656936;-68
2021/07/05 06:01:38;;;;;;;15.73;9.97;;;19.70;99.90;;;;;;4491324;27;657377;-69
2021/07/05 06:04:26;;;;;;;17.73;10.40;;;19.80;99.90;;;;;;4467820;27;656768;-68
2021/07/05 06:07:15;;;;;;;15.07;10.20;;;19.80;99.90;;;;;;4485299;27;657886;-68
2021/07/05 06:10:02;;;;;;;22.97;10.40;;;19.90;99.90;;;;;;4445905;27;658319;-68
2021/07/05 06:12:50;;;;;;;19.03;11.13;;;20.00;99.90;;;;;;4466546;27;657747;-68
2021/07/05 06:15:38;;;;;;;16.40;10.33;;;20.10;99.90;;;;;;4484840;27;658680;-67
2021/07/05 06:18:26;;;;;;;17.53;11.10;;;20.20;99.90;;;;;;4464161;27;657974;-68
2021/07/05 06:21:13;;;;;;;16.42;10.07;;;20.30;99.90;;;;;;4471422;27;657835;-68
2021/07/05 06:24:05;;;;;;;17.00;10.63;;;20.40;99.90;;;;;;4466132;27;658141;-68
2021/07/05 06:26:53;;;;;;;17.20;10.33;;;20.50;99.90;;;;;;4461443;27;657863;-68
2021/07/05 06:29:41;;;;;;;15.70;9.97;;;20.70;99.90;;;;;;4433268;27;657243;-68
2021/07/05 06:32:28;;;;;;;16.90;9.47;;;21.00;99.90;;;;;;4479778;27;657139;-68
2021/07/05 06:35:16;;;;;;;18.87;10.50;;;21.10;99.90;;;;;;4463814;27;656795;-68
2021/07/05 06:38:04;;;;;;;18.23;9.40;;;21.20;99.90;;;;;;4485152;27;658161;-68
2021/07/05 06:40:54;;;;;;;13.77;9.20;;;21.40;99.90;;;;;;4458175;27;657681;-68
2021/07/05 06:43:42;;;;;;;16.93;10.50;;;21.60;99.90;;;;;;4461969;27;657598;-68
2021/07/05 06:46:29;;;;;;;17.93;10.17;;;21.90;99.90;;;;;;4475410;27;657700;-67
2021/07/05 06:49:18;;;;;;;16.83;9.37;;;22.10;99.90;;;;;;4485033;27;658627;-68
2021/07/05 06:52:06;;;;;;;17.93;9.97;;;22.30;99.90;;;;;;4466088;27;656232;-68
2021/07/05 06:54:53;;;;;;;15.20;8.67;;;22.50;99.90;;;;;;4479540;27;656908;-68
2021/07/05 06:57:42;;;;;;;18.37;9.33;;;22.70;99.90;;;;;;4467720;27;657238;-68
2021/07/05 07:00:30;;;;;;;15.50;9.30;;;22.90;99.90;;;;;;4460570;27;656530;-68
2021/07/05 07:03:18;;;;;;;14.33;8.73;;;23.00;99.90;;;;;;4487802;27;656536;-68
2021/07/05 07:06:05;;;;;;;17.98;9.40;;;23.00;99.90;;;;;;4462594;27;656469;-68
2021/07/05 07:08:53;;;;;;;17.30;9.10;;;22.80;99.90;;;;;;4475753;27;657434;-68
2021/07/05 07:11:40;;;;;;;14.83;9.40;;;22.50;99.90;;;;;;4465914;27;657017;-68
2021/07/05 07:14:29;;;;;;;18.17;9.67;;;22.30;99.90;;;;;;4486017;27;656790;-68
2021/07/05 07:17:23;;;;;;;13.83;8.67;;;22.40;99.90;;;;;;4462437;27;657515;-69
2021/07/05 07:20:12;;;;;;;15.50;9.53;;;22.50;99.90;;;;;;4439290;27;657755;-68
2021/07/05 07:23:00;;;;;;;16.00;9.77;;;22.40;99.90;;;;;;4466107;27;656473;-68
2021/07/05 07:25:47;;;;;;;15.93;9.77;;;22.50;99.90;;;;;;4489481;27;657474;-68
2021/07/05 07:28:35;;;;;;;15.63;8.83;;;22.70;99.90;;;;;;4465284;27;656531;-68
2021/07/05 07:31:24;;;;;;;15.80;8.60;;;22.90;99.90;;;;;;4488612;27;657037;-68
2021/07/05 07:34:11;;;;;;;12.00;8.10;;;23.10;99.90;;;;;;4454102;27;657125;-68
2021/07/05 07:37:02;;;;;;;13.87;7.60;;;23.20;99.90;;;;;;4478674;27;656461;-68
2021/07/05 07:39:58;;;;;;;12.93;8.13;;;23.40;99.90;;;;;;4464370;27;657213;-68
2021/07/05 07:42:46;;;;;;;14.60;7.50;;;23.60;99.90;;;;;;4432012;27;657826;-69
2021/07/05 07:45:34;;;;;;;15.50;8.40;;;23.70;99.90;;;;;;4483307;27;656712;-68
2021/07/05 07:48:25;;;;;;;18.07;8.83;;;23.90;99.90;;;;;;4487720;27;657076;-69
2021/07/05 07:51:12;;;;;;;16.03;6.90;;;24.20;99.90;;;;;;4461224;27;657200;-69
2021/07/05 07:54:00;;;;;;;11.20;7.23;;;24.30;99.90;;;;;;4465926;27;657021;-68
2021/07/05 07:57:49;;;;;;;11.73;7.40;;;24.40;99.90;;;;;;4484096;27;658074;-68
2021/07/05 08:00:36;;;;;;;9.10;6.80;;;24.50;99.90;;;;;;4429798;27;657861;-68
2021/07/05 08:03:26;;;;;;;9.07;5.97;;;24.80;99.90;;;;;;4479657;27;656631;-69
2021/07/05 08:06:14;;;;;;;10.05;6.15;;;24.80;99.90;;;;;;4455245;27;656067;-69
2021/07/05 08:09:03;;;;;;;9.35;6.65;;;24.80;99.90;;;;;;4461433;27;659021;-69
2021/07/05 08:12:03;;;;;;;10.20;6.55;;;24.70;99.90;;;;;;4466435;27;656324;-68
2021/07/05 08:14:51;;;;;;;8.95;6.38;;;24.90;99.90;;;;;;4460983;27;657650;-69
2021/07/05 08:17:41;;;;;;;7.68;5.72;;;25.10;99.90;;;;;;4485360;27;655950;-69
2021/07/05 08:20:30;;;;;;;10.00;5.43;;;25.20;99.90;;;;;;4455116;27;655834;-69
2021/07/05 08:23:18;;;;;;;7.80;5.30;;;25.30;99.90;;;;;;4461207;27;657290;-69
2021/07/05 08:52:43;;;;;;;6.60;4.93;;;26.60;99.90;;;;;;4440425;28;655331;-69
2021/07/05 09:10:19;;;;;;;6.15;4.80;;;27.00;95.50;;;;;;4462224;28;655772;-69
2021/07/05 09:13:09;;;;;;;9.02;5.45;;;27.40;95.80;;;;;;4452530;28;655802;-69
2021/07/05 09:15:57;;;;;;;10.20;5.00;;;27.90;96.30;;;;;;4456461;27;657113;-70
2021/07/05 09:18:47;;;;;;;7.28;4.63;;;28.10;91.00;;;;;;4465005;27;656315;-69
2021/07/05 09:21:35;;;;;;;7.15;5.13;;;28.10;91.20;;;;;;4466985;27;655984;-69
2021/07/05 09:24:41;;;;;;;6.97;5.00;;;28.30;92.10;;;;;;4474886;28;655460;-69
2021/07/05 09:27:34;;;;;;;10.27;4.93;;;28.20;89.80;;;;;;4443814;27;655207;-69
2021/07/05 09:30:21;;;;;;;6.88;5.03;;;27.60;91.60;;;;;;4445982;28;658897;-69
2021/07/05 09:33:18;;;;;;;8.60;5.28;;;27.60;88.50;;;;;;4481958;27;655857;-69
2021/07/05 09:36:06;;;;;;;5.70;4.43;;;27.50;86.50;;;;;;4442491;27;656871;-69
2021/07/05 09:38:54;;;;;;;7.57;4.97;;;27.70;90.80;;;;;;4488254;27;655732;-69
2021/07/05 09:41:41;;;;;;;8.68;5.20;;;28.00;86.20;;;;;;4465147;27;656033;-69
2021/07/05 09:44:40;;;;;;;11.60;5.22;;;28.20;88.90;;;;;;4481295;27;655769;-69
2021/07/05 09:47:28;;;;;;;6.30;4.97;;;28.20;88.30;;;;;;4445984;28;657274;-69
2021/07/05 09:50:20;;;;;;;6.75;4.97;;;28.50;88.90;;;;;;4451385;28;655652;-69
2021/07/05 09:53:26;;;;;;;9.70;4.95;;;29.00;87.20;;;;;;4447770;28;655612;-70
2021/07/05 09:56:18;;;;;;;6.82;4.90;;;29.20;80.40;;;;;;4448116;28;655958;-69
2021/07/05 09:59:16;;;;;;;6.75;5.18;;;29.10;86.10;;;;;;4442368;27;657153;-69
2021/07/05 10:02:06;;;;;;;8.18;4.75;;;29.10;77.50;;;;;;4465478;27;655399;-69
2021/07/05 10:05:09;;;;;;;7.20;5.22;;;29.00;80.20;;;;;;4464312;27;655901;-69
2021/07/05 10:08:02;;;;;;;6.53;4.70;;;29.30;82.10;;;;;;4463739;27;656221;-69
2021/07/05 10:11:02;;;;;;;6.00;4.30;;;29.40;78.00;;;;;;4448639;27;655605;-69
2021/07/05 10:13:50;;;;;;;7.10;4.72;;;29.50;76.00;;;;;;4439684;27;655636;-69
2021/07/05 10:16:38;;;;;;;6.32;4.80;;;29.80;70.00;;;;;;4487083;27;655858;-69
2021/07/05 10:19:27;;;;;;;6.50;4.40;;;29.40;70.60;;;;;;4462707;27;655429;-69
2021/07/05 10:22:15;;;;;;;8.40;4.70;;;29.70;70.70;;;;;;4467820;27;655945;-69
2021/07/05 10:25:02;;;;;;;23.52;4.97;;;29.90;73.10;;;;;;4489342;27;655882;-69
2021/07/05 10:27:50;;;;;;;8.05;4.90;;;30.20;72.00;;;;;;4461175;27;655992;-69
2021/07/05 10:30:37;;;;;;;6.43;5.10;;;30.60;72.70;;;;;;4487255;27;656339;-69
2021/07/05 10:33:25;;;;;;;7.28;5.15;;;30.50;66.00;;;;;;4460594;27;655606;-69
2021/07/05 10:36:14;;;;;;;6.95;5.57;;;31.00;72.00;;;;;;4487015;27;654946;-69
2021/07/05 10:39:02;;;;;;;8.40;5.57;;;31.30;73.70;;;;;;4459525;27;656766;-69
2021/07/05 10:41:50;;;;;;;9.27;5.72;;;30.90;70.20;;;;;;4465953;27;655576;-69
2021/07/05 10:44:41;;;;;;;9.32;5.25;;;31.30;71.20;;;;;;4483813;27;656742;-70
2021/07/05 10:47:41;;;;;;;5.88;4.95;;;31.50;69.10;;;;;;4457996;27;655835;-72
2021/07/05 10:50:51;;;;;;;6.65;4.72;;;30.80;65.40;;;;;;4457777;27;656028;-73
2021/07/05 10:53:55;;;;;;;6.78;4.90;;;30.20;66.50;;;;;;4454539;27;655658;-73
2021/07/05 10:56:45;;;;;;;7.20;4.75;;;30.30;65.80;;;;;;4464525;27;655882;-74
2021/07/05 10:59:37;;;;;;;5.88;4.63;;;30.30;63.70;;;;;;4464244;27;656920;-74
2021/07/05 11:02:44;;;;;;;8.40;4.90;;;30.80;66.20;;;;;;4444935;27;655232;-71
2021/07/05 11:05:37;;;;;;;7.80;4.82;;;30.80;63.50;;;;;;4440233;27;655678;-75
2021/07/05 11:08:31;;;;;;;6.15;4.57;;;30.30;62.90;;;;;;4455836;27;656477;-70
2021/07/05 11:11:25;;;;;;;10.15;5.00;;;29.90;63.70;;;;;;4463519;27;655815;-73
2021/07/05 11:14:18;;;;;;;6.25;4.50;;;29.50;64.50;;;;;;4461699;27;656837;-75
2021/07/05 11:17:08;;;;;;;9.05;5.10;;;29.40;65.70;;;;;;4433356;27;656422;-75
2021/07/05 11:19:56;;;;;;;9.07;5.20;;;29.00;70.70;;;;;;4467450;27;655820;-75
2021/07/05 11:22:53;;;;;;;8.15;5.22;;;28.80;66.00;;;;;;4484055;27;656112;-75
2021/07/05 11:25:41;;;;;;;6.45;5.07;;;28.50;66.30;;;;;;4436205;27;656580;-76
2021/07/05 11:28:30;;;;;;;7.60;4.78;;;28.70;70.40;;;;;;4489286;27;655397;-75
2021/07/05 11:31:20;;;;;;;7.30;4.90;;;29.00;71.00;;;;;;4461989;27;655600;-75
2021/07/05 11:34:26;;;;;;;9.50;4.68;;;29.70;71.90;;;;;;4462759;27;655946;-73
2021/07/05 11:37:34;;;;;;;10.27;5.37;;;30.40;70.10;;;;;;4463154;27;656239;-73
2021/07/05 11:40:44;;;;;;;8.52;4.85;;;30.20;68.80;;;;;;4436249;27;656965;-73
2021/07/05 11:43:51;;;;;;;7.97;5.32;;;30.60;69.20;;;;;;4434670;27;656699;-73
2021/07/05 11:46:50;;;;;;;7.28;5.22;;;30.90;62.20;;;;;;4455899;27;655292;-73
2021/07/05 11:49:39;;;;;;;7.18;5.20;;;29.90;63.70;;;;;;4462899;27;655748;-75
2021/07/05 11:52:26;;;;;;;11.50;5.38;;;29.20;65.40;;;;;;4458366;27;655986;-75
2021/07/05 11:55:15;;;;;;;6.10;5.35;;;28.50;68.30;;;;;;4482211;27;656255;-73
2021/07/05 11:58:05;;;;;;;8.30;5.68;;;27.90;71.50;;;;;;4488879;27;656100;-77
2021/07/05 12:00:54;;;;;;;10.07;5.53;;;27.90;74.30;;;;;;4455387;27;656465;-76
2021/07/05 12:03:50;;;;;;;9.85;5.95;;;27.50;74.70;;;;;;4461916;27;658164;-76
2021/07/05 12:06:38;;;;;;;8.38;5.10;;;27.40;74.60;;;;;;4462869;27;655770;-76
2021/07/05 12:09:30;;;;;;;7.82;5.75;;;27.30;74.20;;;;;;4466536;27;655533;-75
2021/07/05 12:12:18;;;;;;;8.80;5.50;;;27.40;79.50;;;;;;4458496;27;655913;-76
2021/07/05 12:15:07;;;;;;;8.05;5.60;;;27.60;80.00;;;;;;4462373;27;656605;-76
2021/07/05 12:17:59;;;;;;;7.50;5.30;;;27.90;81.30;;;;;;4461254;27;655661;-72
2021/07/05 12:20:47;;;;;;;7.20;4.95;;;28.60;79.80;;;;;;4459250;27;656794;-75
2021/07/05 12:23:36;;;;;;;6.28;5.13;;;28.80;69.20;;;;;;4468433;27;655677;-74
2021/07/05 12:26:24;;;;;;;5.45;4.60;;;29.10;75.30;;;;;;4478999;27;655935;-73
2021/07/05 12:29:13;;;;;;;6.57;5.20;;;29.10;70.00;;;;;;4452043;27;657089;-75
2021/07/05 12:32:19;;;;;;;7.78;4.75;;;29.50;69.30;;;;;;4461970;28;656907;-75
2021/07/05 12:35:09;;;;;;;8.27;4.90;;;30.20;68.10;;;;;;4462327;28;656838;-77
2021/07/05 12:37:59;;;;;;;7.95;4.57;;;30.30;65.00;;;;;;4462308;28;656964;-74
2021/07/05 12:40:47;;;;;;;7.05;4.85;;;29.50;63.90;;;;;;4458615;28;656711;-74
2021/07/05 12:43:35;;;;;;;6.40;4.75;;;29.00;64.60;;;;;;4459138;28;655707;-71
2021/07/05 12:46:22;;;;;;;6.07;4.88;;;28.90;68.90;;;;;;4487760;28;656080;-74
2021/07/05 12:49:10;;;;;;;6.28;4.22;;;28.90;68.60;;;;;;4458843;27;655763;-75
2021/07/05 12:51:59;;;;;;;10.77;4.60;;;28.60;67.30;;;;;;4489197;27;656509;-75
2021/07/05 12:54:47;;;;;;;6.88;5.13;;;28.50;72.00;;;;;;4457612;27;657430;-75
2021/07/05 12:57:35;;;;;;;11.68;5.57;;;28.70;70.70;;;;;;4462026;27;655466;-72
2021/07/05 13:00:23;;;;;;;9.63;4.55;;;28.70;69.70;;;;;;4482616;27;656426;-72
2021/07/05 13:03:12;;;;;;;10.02;4.30;;;28.30;71.10;;;;;;4465978;27;656978;-74
2021/07/05 13:06:05;;;;;;;6.22;4.97;;;28.20;72.60;;;;;;4468714;27;656441;-76
2021/07/05 13:08:57;;;;;;;8.82;4.55;;;28.10;71.50;;;;;;4463984;27;656015;-76
2021/07/05 13:11:46;;;;;;;7.22;4.50;;;28.30;67.70;;;;;;4442695;27;656205;-75
2021/07/05 13:14:35;;;;;;;6.78;5.30;;;28.20;70.30;;;;;;4488568;27;655988;-74
2021/07/05 13:17:23;;;;;;;5.75;4.82;;;27.70;68.60;;;;;;4465365;27;656748;-76
2021/07/05 13:20:13;;;;;;;7.40;4.88;;;27.60;76.00;;;;;;4469481;27;655628;-75
2021/07/05 13:23:00;;;;;;;7.70;5.30;;;28.00;73.30;;;;;;4463646;27;655964;-74
2021/07/05 13:25:55;;;;;;;7.30;4.70;;;28.00;72.90;;;;;;4488190;27;655876;-74
2021/07/05 13:28:46;;;;;;;9.50;5.00;;;27.80;73.80;;;;;;4461079;27;655594;-74
2021/07/05 13:31:35;;;;;;;7.82;5.07;;;27.70;71.30;;;;;;4486905;27;655770;-72
2021/07/05 13:34:30;;;;;;;9.38;4.78;;;27.60;72.20;;;;;;4488155;27;656165;-74
2021/07/05 13:37:22;;;;;;;6.45;5.07;;;27.80;75.80;;;;;;4449708;27;656015;-73
2021/07/05 13:40:11;;;;;;;6.20;4.53;;;28.40;73.80;;;;;;4441013;27;655678;-73
2021/07/05 13:43:05;;;;;;;8.68;4.82;;;28.70;74.10;;;;;;4475651;27;656840;-71
2021/07/05 13:45:55;;;;;;;5.65;4.47;;;29.00;70.30;;;;;;4465012;27;655857;-72
2021/07/05 13:48:43;;;;;;;6.90;4.30;;;29.30;66.50;;;;;;4453092;27;656251;-69
2021/07/05 13:51:35;;;;;;;7.35;4.57;;;28.80;68.70;;;;;;4462504;27;655321;-69
2021/07/05 13:54:29;;;;;;;6.30;5.13;;;28.70;69.20;;;;;;4465029;27;655962;-69
2021/07/05 13:57:19;;;;;;;5.20;4.32;;;28.50;69.80;;;;;;4439308;27;655983;-69
2021/07/05 14:00:10;;;;;;;6.80;4.70;;;28.20;70.40;;;;;;4464323;27;656528;-70
2021/07/05 14:02:58;;;;;;;5.68;4.05;;;28.20;70.40;;;;;;4464227;27;656563;-69
2021/07/05 14:05:46;;;;;;;8.80;4.40;;;28.10;68.00;;;;;;4468919;27;656137;-69
2021/07/05 14:08:34;;;;;;;5.18;4.25;;;28.00;69.20;;;;;;4482322;27;656567;-69
2021/07/05 14:11:22;;;;;;;6.22;4.45;;;27.80;71.30;;;;;;4468618;27;655970;-69
2021/07/05 14:14:10;;;;;;;6.75;4.53;;;27.80;72.30;;;;;;4469466;27;655813;-69
2021/07/05 14:16:59;;;;;;;5.95;4.95;;;27.90;70.80;;;;;;4482912;27;655939;-69
2021/07/05 14:19:47;;;;;;;7.40;4.63;;;27.70;70.00;;;;;;4468773;27;656532;-69
2021/07/05 14:22:35;;;;;;;6.15;4.85;;;27.50;72.20;;;;;;4471065;27;655489;-69
2021/07/05 14:25:22;;;;;;;7.03;4.70;;;27.80;73.60;;;;;;4487544;27;656066;-69
2021/07/05 14:28:10;;;;;;;6.43;5.03;;;28.00;74.80;;;;;;4460135;27;655778;-68
2021/07/05 14:30:58;;;;;;;7.97;4.95;;;28.20;72.10;;;;;;4484623;27;655590;-69
2021/07/05 14:33:47;;;;;;;7.82;5.35;;;28.30;72.60;;;;;;4456641;27;656802;-68
2021/07/05 14:36:35;;;;;;;9.73;5.20;;;28.30;73.70;;;;;;4461607;27;655539;-68
2021/07/05 14:39:22;;;;;;;35.45;6.72;;;28.30;69.10;;;;;;4487520;27;656655;-68
2021/07/05 14:42:10;;;;;;;9.05;4.75;;;28.30;73.30;;;;;;4466971;27;656888;-68
2021/07/05 14:44:58;;;;;;;11.57;5.07;;;28.60;70.20;;;;;;4487131;27;656399;-68
2021/07/05 14:47:46;;;;;;;10.23;5.18;;;28.90;71.00;;;;;;4461236;27;656337;-67
2021/07/05 14:50:35;;;;;;;13.43;6.15;;;29.30;71.20;;;;;;4485942;27;656533;-68
2021/07/05 14:53:22;;;;;;;7.30;5.32;;;29.20;70.10;;;;;;4460268;27;657622;-67
2021/07/05 14:56:10;;;;;;;12.35;5.57;;;29.60;68.90;;;;;;4467881;27;655892;-68
2021/07/05 14:58:57;;;;;;;9.68;5.63;;;29.80;69.10;;;;;;4485578;27;657777;-67
2021/07/05 15:01:45;;;;;;;10.60;5.80;;;30.00;67.60;;;;;;4463342;27;655666;-68
2021/07/05 15:04:33;;;;;;;8.27;5.90;;;29.50;65.80;;;;;;4488868;27;657604;-68
2021/07/05 15:07:22;;;;;;;10.88;6.22;;;29.50;69.90;;;;;;4459732;27;655355;-67